createdAt,value
2024-03-24T00:00:25.264Z,0
2024-03-24T00:01:31.368Z,0
2024-03-24T00:02:37.473Z,0
2024-03-24T00:03:43.578Z,0
2024-03-24T00:04:49.683Z,0
2024-03-24T00:05:55.789Z,0
2024-03-24T00:07:01.893Z,0
2024-03-24T00:08:07.998Z,0
2024-03-24T00:09:14.103Z,0
2024-03-24T00:10:20.187Z,0
2024-03-24T00:11:26.311Z,0
2024-03-24T00:12:32.415Z,0
2024-03-24T00:13:38.758Z,0
2024-03-24T00:14:43.864Z,0
2024-03-24T00:15:49.984Z,0
2024-03-24T00:16:56.089Z,0
2024-03-24T00:18:02.194Z,0
2024-03-24T00:19:08.299Z,0
2024-03-24T00:20:14.398Z,0
2024-03-24T00:21:20.509Z,0
2024-03-24T00:22:26.613Z,0
2024-03-24T00:23:32.718Z,0
2024-03-24T00:24:38.823Z,0
2024-03-24T00:25:44.927Z,0
2024-03-24T00:26:51.031Z,0
2024-03-24T00:27:57.135Z,0
2024-03-24T00:29:03.479Z,0
2024-03-24T00:30:08.600Z,0
2024-03-24T00:31:14.705Z,0
2024-03-24T00:32:20.810Z,0
2024-03-24T00:33:26.914Z,0
2024-03-24T00:34:33.020Z,0
2024-03-24T00:35:39.124Z,0
2024-03-24T00:36:45.229Z,0
2024-03-24T00:37:51.334Z,0
2024-03-24T00:38:57.439Z,0
2024-03-24T00:40:03.544Z,0
2024-03-24T00:41:09.647Z,0
2024-03-24T00:42:15.751Z,0
2024-03-24T00:43:21.856Z,0
2024-03-24T00:44:28.186Z,0
2024-03-24T00:45:33.320Z,0
2024-03-24T00:46:39.424Z,0
2024-03-24T00:47:45.529Z,0
2024-03-24T00:48:50.655Z,0
2024-03-24T00:49:56.760Z,0
2024-03-24T00:51:02.865Z,0
2024-03-24T00:52:08.969Z,0
2024-03-24T00:53:15.073Z,0
2024-03-24T00:54:21.177Z,0
2024-03-24T00:55:27.511Z,0
2024-03-24T00:56:33.615Z,0
2024-03-24T00:57:39.720Z,0
2024-03-24T00:58:45.825Z,0
2024-03-24T00:59:51.917Z,0
2024-03-24T01:00:58.035Z,0
2024-03-24T01:02:04.140Z,0
2024-03-24T01:03:09.261Z,0
2024-03-24T01:04:15.366Z,0
2024-03-24T01:05:21.471Z,0
2024-03-24T01:06:27.576Z,0
2024-03-24T01:07:33.680Z,0
2024-03-24T01:08:39.784Z,0
2024-03-24T01:09:45.874Z,0
2024-03-24T01:10:52.231Z,0
2024-03-24T01:11:58.336Z,0
2024-03-24T01:13:04.441Z,0
2024-03-24T01:14:10.546Z,0
2024-03-24T01:15:16.651Z,0
2024-03-24T01:16:22.755Z,0
2024-03-24T01:17:27.876Z,0
2024-03-24T01:18:33.981Z,0
2024-03-24T01:19:40.086Z,0
2024-03-24T01:20:46.191Z,0
2024-03-24T01:21:52.297Z,0
2024-03-24T01:22:58.401Z,0
2024-03-24T01:24:04.505Z,0
2024-03-24T01:25:10.608Z,0
2024-03-24T01:26:16.952Z,0
2024-03-24T01:27:23.056Z,0
2024-03-24T01:28:29.161Z,0
2024-03-24T01:29:35.260Z,0
2024-03-24T01:30:41.371Z,0
2024-03-24T01:31:46.491Z,0
2024-03-24T01:32:52.597Z,0
2024-03-24T01:33:58.702Z,0
2024-03-24T01:35:04.807Z,0
2024-03-24T01:36:10.912Z,0
2024-03-24T01:37:17.016Z,0
2024-03-24T01:38:23.120Z,0
2024-03-24T01:39:29.224Z,0
2024-03-24T01:40:35.328Z,0
2024-03-24T01:41:41.672Z,0
2024-03-24T01:42:47.777Z,0
2024-03-24T01:43:53.871Z,0
2024-03-24T01:44:59.987Z,0
2024-03-24T01:46:05.108Z,0
2024-03-24T01:47:11.213Z,0
2024-03-24T01:48:17.318Z,0
2024-03-24T01:49:23.423Z,0
2024-03-24T01:50:29.528Z,0
2024-03-24T01:51:35.633Z,0
2024-03-24T01:52:41.738Z,0
2024-03-24T01:53:47.835Z,0
2024-03-24T01:54:53.945Z,0
2024-03-24T01:56:00.049Z,0
2024-03-24T01:57:06.393Z,0
2024-03-24T01:58:12.498Z,0
2024-03-24T01:59:18.603Z,0
2024-03-24T02:00:23.724Z,0
2024-03-24T02:01:29.829Z,0
2024-03-24T02:02:35.933Z,0
2024-03-24T02:03:42.038Z,0
2024-03-24T02:04:48.143Z,0
2024-03-24T02:05:54.249Z,0
2024-03-24T02:07:00.354Z,0
2024-03-24T02:08:06.459Z,0
2024-03-24T02:09:12.559Z,0
2024-03-24T02:10:18.667Z,0
2024-03-24T02:11:24.771Z,0
2024-03-24T02:12:31.115Z,0
2024-03-24T02:13:37.220Z,0
2024-03-24T02:14:42.340Z,0
2024-03-24T02:15:48.445Z,0
2024-03-24T02:16:54.550Z,0
2024-03-24T02:18:00.655Z,0
2024-03-24T02:19:06.760Z,0
2024-03-24T02:20:12.865Z,0
2024-03-24T02:21:18.970Z,0
2024-03-24T02:22:25.075Z,0
2024-03-24T02:23:31.179Z,0
2024-03-24T02:24:37.283Z,0
2024-03-24T02:25:43.387Z,0
2024-03-24T02:26:49.490Z,0
2024-03-24T02:27:55.835Z,0
2024-03-24T02:29:00.956Z,0
2024-03-24T02:30:07.061Z,0
2024-03-24T02:31:13.166Z,0
2024-03-24T02:32:19.271Z,0
2024-03-24T02:33:25.376Z,0
2024-03-24T02:34:31.481Z,0
2024-03-24T02:35:37.586Z,0
2024-03-24T02:36:43.690Z,0
2024-03-24T02:37:49.795Z,0
2024-03-24T02:38:55.886Z,0
2024-03-24T02:40:02.004Z,0
2024-03-24T02:41:08.108Z,0
2024-03-24T02:42:14.212Z,0
2024-03-24T02:43:20.543Z,0
2024-03-24T02:44:25.677Z,0
2024-03-24T02:45:31.782Z,0
2024-03-24T02:46:37.886Z,0
2024-03-24T02:47:43.991Z,0
2024-03-24T02:48:50.096Z,0
2024-03-24T02:49:56.201Z,0
2024-03-24T02:51:02.306Z,0
2024-03-24T02:52:08.411Z,0
2024-03-24T02:53:14.515Z,0
2024-03-24T02:54:20.620Z,0
2024-03-24T02:55:26.724Z,0
2024-03-24T02:56:32.828Z,0
2024-03-24T02:57:38.933Z,0
2024-03-24T02:58:45.278Z,0
2024-03-24T02:59:50.399Z,0
2024-03-24T03:00:56.504Z,0
2024-03-24T03:02:02.608Z,0
2024-03-24T03:03:08.714Z,0
2024-03-24T03:04:14.818Z,0
2024-03-24T03:05:20.924Z,0
2024-03-24T03:06:27.029Z,0
2024-03-24T03:07:33.134Z,0
2024-03-24T03:08:39.240Z,0
2024-03-24T03:09:45.345Z,0
2024-03-24T03:10:51.449Z,0
2024-03-24T03:11:57.553Z,0
2024-03-24T03:13:03.657Z,0
2024-03-24T03:14:10.001Z,0
2024-03-24T03:15:15.122Z,0
2024-03-24T03:16:21.227Z,0
2024-03-24T03:17:27.312Z,0
2024-03-24T03:18:33.437Z,0
2024-03-24T03:19:39.542Z,0
2024-03-24T03:20:45.646Z,0
2024-03-24T03:21:51.751Z,0
2024-03-24T03:22:57.853Z,0
2024-03-24T03:24:03.961Z,0
2024-03-24T03:25:10.066Z,0
2024-03-24T03:26:16.170Z,0
2024-03-24T03:27:22.274Z,0
2024-03-24T03:28:28.356Z,0
2024-03-24T03:29:34.722Z,0
2024-03-24T03:30:39.843Z,0
2024-03-24T03:31:45.948Z,0
2024-03-24T03:32:52.030Z,0
2024-03-24T03:33:58.158Z,0
2024-03-24T03:35:04.263Z,0
2024-03-24T03:36:10.368Z,0
2024-03-24T03:37:16.473Z,0
2024-03-24T03:38:22.566Z,0
2024-03-24T03:39:28.683Z,0
2024-03-24T03:40:34.788Z,0
2024-03-24T03:41:40.872Z,0
2024-03-24T03:42:46.996Z,0
2024-03-24T03:43:53.100Z,0
2024-03-24T03:44:59.445Z,0
2024-03-24T03:46:04.566Z,0
2024-03-24T03:47:10.671Z,0
2024-03-24T03:48:16.754Z,0
2024-03-24T03:49:22.880Z,0
2024-03-24T03:50:28.985Z,0
2024-03-24T03:51:35.090Z,0
2024-03-24T03:52:41.182Z,0
2024-03-24T03:53:47.300Z,0
2024-03-24T03:54:53.405Z,0
2024-03-24T03:55:59.510Z,0
2024-03-24T03:57:05.614Z,0
2024-03-24T03:58:11.715Z,0
2024-03-24T03:59:17.821Z,0
2024-03-24T04:00:24.165Z,0
2024-03-24T04:01:29.286Z,0
2024-03-24T04:02:35.379Z,0
2024-03-24T04:03:41.496Z,0
2024-03-24T04:04:47.601Z,0
2024-03-24T04:05:53.706Z,0
2024-03-24T04:06:59.811Z,0
2024-03-24T04:08:05.916Z,0
2024-03-24T04:09:12.021Z,0
2024-03-24T04:10:18.125Z,0
2024-03-24T04:11:24.230Z,0
2024-03-24T04:12:30.334Z,0
2024-03-24T04:13:36.438Z,0
2024-03-24T04:14:42.542Z,0
2024-03-24T04:15:48.885Z,0
2024-03-24T04:16:54.006Z,0
2024-03-24T04:18:00.109Z,0
2024-03-24T04:19:06.216Z,0
2024-03-24T04:20:12.320Z,0
2024-03-24T04:21:18.425Z,0
2024-03-24T04:22:24.524Z,0
2024-03-24T04:23:30.636Z,0
2024-03-24T04:24:36.740Z,0
2024-03-24T04:25:42.845Z,0
2024-03-24T04:26:48.950Z,0
2024-03-24T04:27:55.055Z,0
2024-03-24T04:29:01.160Z,0
2024-03-24T04:30:06.286Z,0
2024-03-24T04:31:12.391Z,0
2024-03-24T04:32:18.496Z,0
2024-03-24T04:33:24.601Z,0
2024-03-24T04:34:30.706Z,0
2024-03-24T04:35:36.811Z,1
2024-03-24T04:36:42.915Z,1
2024-03-24T04:37:49.020Z,0
2024-03-24T04:38:55.125Z,0
2024-03-24T04:40:01.230Z,0
2024-03-24T04:41:07.335Z,1
2024-03-24T04:42:13.440Z,0
2024-03-24T04:43:19.545Z,1
2024-03-24T04:44:24.666Z,2
2024-03-24T04:45:30.848Z,2
2024-03-24T04:46:37.002Z,3
2024-03-24T04:47:43.107Z,5
2024-03-24T04:48:49.273Z,6
2024-03-24T04:49:55.427Z,10
2024-03-24T04:51:01.532Z,7
2024-03-24T04:52:07.699Z,11
2024-03-24T04:53:13.853Z,14
2024-03-24T04:54:19.958Z,13
2024-03-24T04:55:26.124Z,14
2024-03-24T04:56:32.279Z,16
2024-03-24T04:57:38.384Z,18
2024-03-24T04:58:43.505Z,26
2024-03-24T04:59:49.610Z,28
2024-03-24T05:00:55.716Z,29
2024-03-24T05:02:01.830Z,30
2024-03-24T05:03:07.984Z,41
2024-03-24T05:04:14.089Z,50
2024-03-24T05:05:20.255Z,54
2024-03-24T05:06:26.410Z,63
2024-03-24T05:07:32.515Z,70
2024-03-24T05:08:38.681Z,80
2024-03-24T05:09:44.836Z,82
2024-03-24T05:10:50.941Z,91
2024-03-24T05:11:57.107Z,100
2024-03-24T05:13:02.228Z,100
2024-03-24T05:14:08.333Z,119
2024-03-24T05:15:14.439Z,132
2024-03-24T05:16:20.544Z,144
2024-03-24T05:17:26.648Z,155
2024-03-24T05:18:32.812Z,170
2024-03-24T05:19:38.966Z,186
2024-03-24T05:20:45.072Z,198
2024-03-24T05:21:51.238Z,211
2024-03-24T05:22:57.392Z,219
2024-03-24T05:24:03.497Z,229
2024-03-24T05:25:09.664Z,235
2024-03-24T05:26:15.819Z,245
2024-03-24T05:27:20.940Z,253
2024-03-24T05:28:27.045Z,262
2024-03-24T05:29:33.150Z,273
2024-03-24T05:30:39.250Z,288
2024-03-24T05:31:45.370Z,298
2024-03-24T05:32:51.524Z,322
2024-03-24T05:33:57.620Z,340
2024-03-24T05:35:03.795Z,359
2024-03-24T05:36:09.950Z,377
2024-03-24T05:37:16.054Z,400
2024-03-24T05:38:22.210Z,419
2024-03-24T05:39:28.376Z,427
2024-03-24T05:40:34.481Z,412
2024-03-24T05:41:39.602Z,404
2024-03-24T05:42:45.707Z,384
2024-03-24T05:43:51.812Z,376
2024-03-24T05:44:57.926Z,354
2024-03-24T05:46:04.080Z,357
2024-03-24T05:47:10.172Z,353
2024-03-24T05:48:16.353Z,331
2024-03-24T05:49:22.507Z,339
2024-03-24T05:50:28.612Z,332
2024-03-24T05:51:34.779Z,341
2024-03-24T05:52:40.933Z,361
2024-03-24T05:53:47.038Z,375
2024-03-24T05:54:53.205Z,375
2024-03-24T05:55:58.326Z,370
2024-03-24T05:57:04.431Z,371
2024-03-24T05:58:10.537Z,377
2024-03-24T05:59:16.642Z,366
2024-03-24T06:00:22.747Z,363
2024-03-24T06:01:28.911Z,372
2024-03-24T06:02:35.065Z,353
2024-03-24T06:03:41.170Z,293
2024-03-24T06:04:47.337Z,318
2024-03-24T06:05:53.491Z,325
2024-03-24T06:06:59.596Z,294
2024-03-24T06:08:05.763Z,249
2024-03-24T06:09:11.918Z,235
2024-03-24T06:10:17.039Z,303
2024-03-24T06:11:23.144Z,420
2024-03-24T06:12:29.249Z,488
2024-03-24T06:13:35.354Z,507
2024-03-24T06:14:41.468Z,523
2024-03-24T06:15:47.622Z,546
2024-03-24T06:16:53.727Z,573
2024-03-24T06:17:59.894Z,616
2024-03-24T06:19:06.048Z,612
2024-03-24T06:20:12.152Z,590
2024-03-24T06:21:18.319Z,609
2024-03-24T06:22:24.473Z,594
2024-03-24T06:23:30.557Z,613
2024-03-24T06:24:35.699Z,653
2024-03-24T06:25:41.804Z,657
2024-03-24T06:26:47.909Z,642
2024-03-24T06:27:54.023Z,629
2024-03-24T06:29:00.177Z,621
2024-03-24T06:30:06.282Z,654
2024-03-24T06:31:12.449Z,623
2024-03-24T06:32:18.602Z,633
2024-03-24T06:33:24.707Z,665
2024-03-24T06:34:30.874Z,680
2024-03-24T06:35:37.028Z,738
2024-03-24T06:36:43.133Z,800
2024-03-24T06:37:49.301Z,831
2024-03-24T06:38:54.422Z,840
2024-03-24T06:40:00.527Z,863
2024-03-24T06:41:06.632Z,928
2024-03-24T06:42:12.737Z,982
2024-03-24T06:43:18.841Z,1045
2024-03-24T06:44:25.005Z,1075
2024-03-24T06:45:31.159Z,1088
2024-03-24T06:46:37.261Z,1134
2024-03-24T06:47:43.430Z,1157
2024-03-24T06:48:49.585Z,1186
2024-03-24T06:49:55.690Z,1203
2024-03-24T06:51:01.856Z,1202
2024-03-24T06:52:08.010Z,1004
2024-03-24T06:53:13.131Z,1232
2024-03-24T06:54:19.236Z,1276
2024-03-24T06:55:25.341Z,1153
2024-03-24T06:56:31.447Z,1301
2024-03-24T06:57:37.560Z,1347
2024-03-24T06:58:43.714Z,1319
2024-03-24T06:59:49.819Z,1158
2024-03-24T07:00:55.986Z,1254
2024-03-24T07:02:02.140Z,1419
2024-03-24T07:03:08.245Z,1423
2024-03-24T07:04:14.411Z,1357
2024-03-24T07:05:20.566Z,1402
2024-03-24T07:06:26.671Z,1430
2024-03-24T07:07:31.792Z,1439
2024-03-24T07:08:37.897Z,1430
2024-03-24T07:09:44.002Z,1515
2024-03-24T07:10:50.116Z,2128
2024-03-24T07:11:56.270Z,1576
2024-03-24T07:13:02.375Z,1575
2024-03-24T07:14:08.542Z,1644
2024-03-24T07:15:14.697Z,1400
2024-03-24T07:16:20.802Z,1522
2024-03-24T07:17:26.969Z,1570
2024-03-24T07:18:33.123Z,1529
2024-03-24T07:19:39.228Z,1480
2024-03-24T07:20:45.395Z,1557
2024-03-24T07:21:50.516Z,1516
2024-03-24T07:22:56.621Z,1558
2024-03-24T07:24:02.726Z,1493
2024-03-24T07:25:08.831Z,1493
2024-03-24T07:26:14.936Z,1771
2024-03-24T07:27:21.099Z,1661
2024-03-24T07:28:27.254Z,1729
2024-03-24T07:29:33.359Z,1774
2024-03-24T07:30:39.525Z,1735
2024-03-24T07:31:45.680Z,1697
2024-03-24T07:32:51.784Z,1668
2024-03-24T07:33:57.952Z,1730
2024-03-24T07:35:04.107Z,1655
2024-03-24T07:36:09.228Z,1705
2024-03-24T07:37:15.333Z,1668
2024-03-24T07:38:21.438Z,1655
2024-03-24T07:39:27.543Z,1662
2024-03-24T07:40:33.657Z,1637
2024-03-24T07:41:39.811Z,1799
2024-03-24T07:42:45.916Z,1615
2024-03-24T07:43:52.083Z,1876
2024-03-24T07:44:58.237Z,1811
2024-03-24T07:46:04.342Z,1616
2024-03-24T07:47:10.508Z,2101
2024-03-24T07:48:16.662Z,1981
2024-03-24T07:49:22.767Z,2183
2024-03-24T07:50:27.888Z,2264
2024-03-24T07:51:33.993Z,2329
2024-03-24T07:52:40.098Z,2068
2024-03-24T07:53:46.213Z,2317
2024-03-24T07:54:52.366Z,2316
2024-03-24T07:55:58.456Z,2479
2024-03-24T07:57:04.638Z,2474
2024-03-24T07:58:10.792Z,2475
2024-03-24T07:59:16.897Z,2687
2024-03-24T08:00:23.061Z,2664
2024-03-24T08:01:29.218Z,2515
2024-03-24T08:02:35.323Z,2550
2024-03-24T08:03:41.489Z,2515
2024-03-24T08:04:46.610Z,2422
2024-03-24T08:05:52.714Z,2302
2024-03-24T08:06:58.819Z,2166
2024-03-24T08:08:04.924Z,2077
2024-03-24T08:09:11.028Z,1901
2024-03-24T08:10:17.191Z,1764
2024-03-24T08:11:22.317Z,1419
2024-03-24T08:12:28.422Z,1440
2024-03-24T08:13:34.527Z,1552
2024-03-24T08:14:40.632Z,1576
2024-03-24T08:15:46.737Z,1516
2024-03-24T08:16:52.895Z,1264
2024-03-24T08:17:59.049Z,1479
2024-03-24T08:19:05.155Z,1543
2024-03-24T08:20:11.321Z,1731
2024-03-24T08:21:17.475Z,1902
2024-03-24T08:22:23.580Z,2126
2024-03-24T08:23:29.747Z,2315
2024-03-24T08:24:35.901Z,2327
2024-03-24T08:25:41.022Z,2410
2024-03-24T08:26:47.127Z,2493
2024-03-24T08:27:53.231Z,2506
2024-03-24T08:28:59.336Z,2473
2024-03-24T08:30:05.450Z,2459
2024-03-24T08:31:11.604Z,2432
2024-03-24T08:32:17.709Z,2234
2024-03-24T08:33:23.875Z,2210
2024-03-24T08:34:30.029Z,2292
2024-03-24T08:35:36.133Z,2490
2024-03-24T08:36:42.300Z,2583
2024-03-24T08:37:48.453Z,2330
2024-03-24T08:38:54.558Z,2480
2024-03-24T08:39:59.679Z,2654
2024-03-24T08:41:05.784Z,2946
2024-03-24T08:42:11.889Z,3105
2024-03-24T08:43:18.002Z,2343
2024-03-24T08:44:24.157Z,3018
2024-03-24T08:45:30.258Z,4435
2024-03-24T08:46:36.428Z,3598
2024-03-24T08:47:42.582Z,6198
2024-03-24T08:48:48.687Z,2737
2024-03-24T08:51:01.007Z,4277
2024-03-24T08:52:07.111Z,3284
2024-03-24T08:53:13.278Z,4640
2024-03-24T08:54:18.398Z,3927
2024-03-24T08:55:24.503Z,3528
2024-03-24T08:56:30.608Z,3386
2024-03-24T08:57:36.712Z,3334
2024-03-24T08:58:42.817Z,3417
2024-03-24T08:59:48.981Z,3795
2024-03-24T09:00:55.135Z,3408
2024-03-24T09:02:01.239Z,2520
2024-03-24T09:03:07.406Z,2174
2024-03-24T09:04:13.560Z,2112
2024-03-24T09:05:19.665Z,2056
2024-03-24T09:06:25.831Z,1909
2024-03-24T09:07:31.985Z,1709
2024-03-24T09:08:37.106Z,1353
2024-03-24T09:09:43.210Z,1112
2024-03-24T09:10:49.315Z,1050
2024-03-24T09:11:55.420Z,922
2024-03-24T09:13:01.534Z,1016
2024-03-24T09:14:07.688Z,1015
2024-03-24T09:15:13.792Z,1081
2024-03-24T09:16:19.959Z,1152
2024-03-24T09:17:26.113Z,1157
2024-03-24T09:18:32.217Z,1176
2024-03-24T09:19:38.385Z,1091
2024-03-24T09:20:44.538Z,1033
2024-03-24T09:21:50.643Z,981
2024-03-24T09:22:55.764Z,814
2024-03-24T09:24:01.868Z,758
2024-03-24T09:25:07.973Z,753
2024-03-24T09:26:14.088Z,737
2024-03-24T09:27:20.243Z,779
2024-03-24T09:28:26.348Z,890
2024-03-24T09:29:32.515Z,879
2024-03-24T09:30:38.669Z,940
2024-03-24T09:31:44.774Z,985
2024-03-24T09:32:50.941Z,1082
2024-03-24T09:33:57.095Z,1099
2024-03-24T09:35:03.200Z,1107
2024-03-24T09:36:09.368Z,1023
2024-03-24T09:37:14.489Z,1109
2024-03-24T09:38:20.594Z,1107
2024-03-24T09:40:32.805Z,1152
2024-03-24T09:41:38.910Z,1199
2024-03-24T09:42:45.073Z,1181
2024-03-24T09:43:51.227Z,1123
2024-03-24T09:44:57.333Z,1218
2024-03-24T09:46:03.499Z,1383
2024-03-24T09:47:09.654Z,1437
2024-03-24T09:48:15.760Z,1613
2024-03-24T09:49:21.927Z,1572
2024-03-24T09:50:28.081Z,1367
2024-03-24T09:51:33.202Z,1146
2024-03-24T09:52:39.307Z,1095
2024-03-24T09:53:45.412Z,1154
2024-03-24T09:54:51.517Z,1019
2024-03-24T09:55:57.632Z,1018
2024-03-24T09:57:03.786Z,1100
2024-03-24T09:58:09.892Z,1215
2024-03-24T09:59:16.059Z,1243
2024-03-24T10:00:22.213Z,1368
2024-03-24T10:01:28.318Z,1494
2024-03-24T10:02:34.485Z,1484
2024-03-24T10:03:40.639Z,1581
2024-03-24T10:04:46.744Z,1414
2024-03-24T10:05:51.865Z,1165
2024-03-24T10:06:57.971Z,1121
2024-03-24T10:08:04.076Z,1251
2024-03-24T10:09:10.191Z,1260
2024-03-24T10:10:16.345Z,1140
2024-03-24T10:11:22.451Z,1073
2024-03-24T10:12:28.617Z,1273
2024-03-24T10:13:34.772Z,1341
2024-03-24T10:14:40.877Z,1166
2024-03-24T10:15:47.044Z,1037
2024-03-24T10:16:53.198Z,1051
2024-03-24T10:17:59.303Z,1033
2024-03-24T10:19:05.470Z,1096
2024-03-24T10:20:10.591Z,1101
2024-03-24T10:21:16.696Z,1062
2024-03-24T10:22:22.801Z,1223
2024-03-24T10:23:28.906Z,1106
2024-03-24T10:24:35.011Z,1055
2024-03-24T10:25:41.175Z,1140
2024-03-24T10:26:47.330Z,1206
2024-03-24T10:27:53.435Z,1373
2024-03-24T10:28:59.602Z,1422
2024-03-24T10:30:05.756Z,1481
2024-03-24T10:31:11.861Z,1467
2024-03-24T10:32:18.028Z,1658
2024-03-24T10:33:24.183Z,1482
2024-03-24T10:34:29.305Z,1454
2024-03-24T10:35:35.410Z,1258
2024-03-24T10:36:41.515Z,1149
2024-03-24T10:37:47.620Z,1137
2024-03-24T10:38:53.734Z,1051
2024-03-24T10:39:59.889Z,1081
2024-03-24T10:41:05.994Z,1020
2024-03-24T10:42:12.161Z,1102
2024-03-24T10:43:18.315Z,1153
2024-03-24T10:44:24.423Z,1061
2024-03-24T10:45:30.587Z,1174
2024-03-24T10:46:36.741Z,1164
2024-03-24T10:47:42.846Z,972
2024-03-24T10:48:47.968Z,822
2024-03-24T10:49:54.073Z,851
2024-03-24T10:51:00.178Z,845
2024-03-24T10:52:06.292Z,931
2024-03-24T10:53:12.446Z,875
2024-03-24T10:54:18.551Z,853
2024-03-24T10:55:24.719Z,834
2024-03-24T10:56:30.872Z,809
2024-03-24T10:57:36.977Z,753
2024-03-24T10:58:43.144Z,738
2024-03-24T10:59:49.298Z,718
2024-03-24T11:00:55.403Z,788
2024-03-24T11:02:01.570Z,846
2024-03-24T11:03:06.691Z,762
2024-03-24T11:04:12.796Z,703
2024-03-24T11:05:18.902Z,650
2024-03-24T11:06:25.007Z,615
2024-03-24T11:07:31.112Z,668
2024-03-24T11:08:37.275Z,761
2024-03-24T11:09:43.430Z,712
2024-03-24T11:10:49.535Z,747
2024-03-24T11:11:55.702Z,698
2024-03-24T11:13:01.857Z,627
2024-03-24T11:14:07.962Z,521
2024-03-24T11:15:14.129Z,453
2024-03-24T11:16:20.284Z,518
2024-03-24T11:17:25.405Z,392
2024-03-24T11:18:31.510Z,419
2024-03-24T11:19:37.615Z,473
2024-03-24T11:20:43.720Z,494
2024-03-24T11:21:49.835Z,607
2024-03-24T11:22:55.989Z,680
2024-03-24T11:24:02.095Z,718
2024-03-24T11:25:08.261Z,693
2024-03-24T11:26:14.415Z,702
2024-03-24T11:27:20.520Z,765
2024-03-24T11:28:26.687Z,755
2024-03-24T11:29:32.841Z,821
2024-03-24T11:30:38.947Z,837
2024-03-24T11:31:44.068Z,759
2024-03-24T11:32:50.173Z,689
2024-03-24T11:33:56.268Z,724
2024-03-24T11:35:02.392Z,738
2024-03-24T11:36:08.546Z,716
2024-03-24T11:37:14.651Z,730
2024-03-24T11:38:20.808Z,864
2024-03-24T11:39:26.973Z,813
2024-03-24T11:40:33.077Z,1005
2024-03-24T11:41:39.244Z,1119
2024-03-24T11:42:45.399Z,1127
2024-03-24T11:43:51.504Z,1243
2024-03-24T11:44:57.670Z,1666
2024-03-24T11:46:02.791Z,1706
2024-03-24T11:47:08.896Z,1739
2024-03-24T11:48:15.001Z,1529
2024-03-24T11:49:21.106Z,1067
2024-03-24T11:50:27.211Z,1345
2024-03-24T11:51:33.375Z,1603
2024-03-24T11:52:38.502Z,1764
2024-03-24T11:53:44.607Z,1911
2024-03-24T11:54:50.712Z,2133
2024-03-24T11:55:56.817Z,2081
2024-03-24T11:57:02.922Z,2051
2024-03-24T11:58:09.080Z,1954
2024-03-24T11:59:15.234Z,1909
2024-03-24T12:00:21.339Z,1857
2024-03-24T12:01:27.506Z,1940
2024-03-24T12:02:33.660Z,2049
2024-03-24T12:03:39.765Z,2044
2024-03-24T12:04:45.932Z,2429
2024-03-24T12:05:52.086Z,3246
2024-03-24T12:06:57.207Z,4019
2024-03-24T12:08:03.312Z,4404
2024-03-24T12:09:09.417Z,3957
2024-03-24T12:10:15.522Z,3716
2024-03-24T12:11:21.637Z,2921
2024-03-24T12:12:27.791Z,3149
2024-03-24T12:13:33.896Z,2590
2024-03-24T12:14:40.062Z,2499
2024-03-24T12:15:46.217Z,3063
2024-03-24T12:16:52.322Z,3084
2024-03-24T12:17:58.489Z,2891
2024-03-24T12:19:04.643Z,2958
2024-03-24T12:20:10.748Z,2707
2024-03-24T12:21:15.869Z,2743
2024-03-24T12:22:21.974Z,1830
2024-03-24T12:23:28.079Z,1438
2024-03-24T12:24:34.192Z,1492
2024-03-24T12:25:40.346Z,1454
2024-03-24T12:26:46.451Z,1632
2024-03-24T12:27:52.613Z,1659
2024-03-24T12:28:58.771Z,1455
2024-03-24T12:30:04.875Z,1198
2024-03-24T12:31:11.042Z,1155
2024-03-24T12:32:17.196Z,1189
2024-03-24T12:33:23.300Z,1283
2024-03-24T12:34:29.467Z,1555
2024-03-24T12:35:34.587Z,1596
2024-03-24T12:36:40.692Z,1526
2024-03-24T12:37:46.797Z,1471
2024-03-24T12:38:52.902Z,1449
2024-03-24T12:39:59.007Z,1428
2024-03-24T12:41:05.172Z,1257
2024-03-24T12:42:11.325Z,1120
2024-03-24T12:43:17.430Z,1128
2024-03-24T12:44:23.597Z,1077
2024-03-24T12:45:29.751Z,1097
2024-03-24T12:46:35.855Z,1106
2024-03-24T12:47:42.022Z,1219
2024-03-24T12:48:48.176Z,1321
2024-03-24T12:49:53.296Z,1456
2024-03-24T12:50:59.402Z,1611
2024-03-24T12:52:05.507Z,1619
2024-03-24T12:53:11.612Z,1713
2024-03-24T12:54:17.726Z,1822
2024-03-24T12:55:23.880Z,2047
2024-03-24T12:56:29.985Z,2236
2024-03-24T12:57:36.151Z,2646
2024-03-24T12:58:42.306Z,3146
2024-03-24T12:59:48.411Z,3686
2024-03-24T13:00:54.577Z,5168
2024-03-24T13:02:00.731Z,6757
2024-03-24T13:03:06.836Z,8122
2024-03-24T13:04:11.956Z,9359
2024-03-24T13:05:18.061Z,11588
2024-03-24T13:06:24.166Z,14688
2024-03-24T13:07:30.280Z,76379
2024-03-24T13:08:36.434Z,76715
2024-03-24T13:09:42.539Z,79691
2024-03-24T13:10:48.705Z,78288
2024-03-24T13:11:54.860Z,77518
2024-03-24T13:13:00.964Z,12703
2024-03-24T13:14:07.131Z,10244
2024-03-24T13:15:13.285Z,77298
2024-03-24T13:16:19.389Z,9988
2024-03-24T13:17:25.555Z,11049
2024-03-24T13:18:30.676Z,8640
2024-03-24T13:19:36.781Z,10697
2024-03-24T13:20:42.885Z,6827
2024-03-24T13:21:48.990Z,9789
2024-03-24T13:22:55.094Z,6858
2024-03-24T13:24:01.257Z,79768
2024-03-24T13:25:07.411Z,10916
2024-03-24T13:26:13.515Z,4182
2024-03-24T13:27:19.681Z,3196
2024-03-24T13:28:25.835Z,1255
2024-03-24T13:29:31.940Z,982
2024-03-24T13:30:38.106Z,866
2024-03-24T13:31:44.260Z,1296
2024-03-24T13:32:49.380Z,1243
2024-03-24T13:33:55.485Z,818
2024-03-24T13:35:01.589Z,796
2024-03-24T13:36:07.694Z,806
2024-03-24T13:37:13.808Z,1276
2024-03-24T13:38:19.962Z,1425
2024-03-24T13:39:26.067Z,1481
2024-03-24T13:40:32.234Z,1648
2024-03-24T13:41:38.388Z,2302
2024-03-24T13:42:44.492Z,2772
2024-03-24T13:43:50.659Z,3229
2024-03-24T13:44:56.813Z,3720
2024-03-24T13:46:02.918Z,5872
2024-03-24T13:47:08.039Z,5066
2024-03-24T13:48:14.144Z,78704
2024-03-24T13:49:20.248Z,76538
2024-03-24T13:50:26.362Z,18663
2024-03-24T13:51:32.516Z,15800
2024-03-24T13:52:38.621Z,6840
2024-03-24T13:53:44.787Z,77701
2024-03-24T13:54:50.940Z,76090
2024-03-24T13:55:57.045Z,76960
2024-03-24T13:57:03.212Z,77714
2024-03-24T13:58:09.365Z,13115
2024-03-24T13:59:15.469Z,75066
2024-03-24T14:00:21.635Z,74797
2024-03-24T14:01:26.756Z,74673
2024-03-24T14:02:32.861Z,75157
2024-03-24T14:03:38.965Z,75003
2024-03-24T14:04:45.070Z,75109
2024-03-24T14:05:51.174Z,75421
2024-03-24T14:06:57.338Z,75449
2024-03-24T14:08:03.491Z,75678
2024-03-24T14:09:09.595Z,75646
2024-03-24T14:10:15.761Z,75398
2024-03-24T14:11:21.914Z,75027
2024-03-24T14:12:28.019Z,75163
2024-03-24T14:13:34.185Z,75483
2024-03-24T14:14:40.339Z,75657
2024-03-24T14:15:45.459Z,5398
2024-03-24T14:16:51.564Z,10377
2024-03-24T14:17:57.669Z,4877
2024-03-24T14:19:03.773Z,4154
2024-03-24T14:20:09.886Z,3829
2024-03-24T14:21:16.040Z,3363
2024-03-24T14:22:22.141Z,3091
2024-03-24T14:23:28.311Z,4370
2024-03-24T14:24:34.465Z,5553
2024-03-24T14:25:40.574Z,6404
2024-03-24T14:26:46.726Z,75015
2024-03-24T14:27:52.889Z,76838
2024-03-24T14:28:58.994Z,75353
2024-03-24T14:30:04.115Z,15783
2024-03-24T14:31:10.219Z,75366
2024-03-24T14:32:16.323Z,75485
2024-03-24T14:33:22.437Z,75619
2024-03-24T14:34:28.591Z,75791
2024-03-24T14:35:34.695Z,75610
2024-03-24T14:36:40.861Z,75263
2024-03-24T14:37:47.014Z,75271
2024-03-24T14:38:53.119Z,7232
2024-03-24T14:39:59.285Z,4898
2024-03-24T14:41:05.438Z,4146
2024-03-24T14:42:11.543Z,3473
2024-03-24T14:43:17.709Z,2729
2024-03-24T14:44:22.829Z,2015
2024-03-24T14:45:28.934Z,1889
2024-03-24T14:46:35.038Z,1802
2024-03-24T14:47:41.143Z,1979
2024-03-24T14:48:47.248Z,2994
2024-03-24T14:49:53.404Z,2154
2024-03-24T14:50:59.565Z,1892
2024-03-24T14:52:05.670Z,1453
2024-03-24T14:53:11.836Z,1230
2024-03-24T14:54:17.990Z,1014
2024-03-24T14:55:24.094Z,1124
2024-03-24T14:56:30.260Z,1375
2024-03-24T14:57:36.414Z,1318
2024-03-24T14:58:41.535Z,1425
2024-03-24T14:59:47.640Z,1616
2024-03-24T15:00:53.744Z,4671
2024-03-24T15:01:59.849Z,79294
2024-03-24T15:03:05.964Z,9244
2024-03-24T15:04:12.118Z,75541
2024-03-24T15:05:18.222Z,5216
2024-03-24T15:06:24.388Z,82664
2024-03-24T15:07:30.542Z,18621
2024-03-24T15:08:36.647Z,6547
2024-03-24T15:09:42.813Z,3640
2024-03-24T15:10:48.966Z,3326
2024-03-24T15:11:55.071Z,3223
2024-03-24T15:13:00.191Z,3070
2024-03-24T15:14:06.297Z,2969
2024-03-24T15:15:12.401Z,2992